sensor_id;sensor_type;location;lat;lon;timestamp;P1;durP1;ratioP1;P2;durP2;ratioP2
14167;SDS011;7163;50.626;12.922;2024-03-07T00:02:30;40.60;;;21.93;;
14167;SDS011;7163;50.626;12.922;2024-03-07T00:07:32;38.97;;;21.30;;
14167;SDS011;7163;50.626;12.922;2024-03-07T00:12:33;41.33;;;23.43;;
14167;SDS011;7163;50.626;12.922;2024-03-07T00:17:36;44.10;;;22.60;;
14167;SDS011;7163;50.626;12.922;2024-03-07T00:22:37;38.40;;;21.67;;
14167;SDS011;7163;50.626;12.922;2024-03-07T00:27:38;43.07;;;21.80;;
14167;SDS011;7163;50.626;12.922;2024-03-07T00:32:41;43.90;;;22.47;;
14167;SDS011;7163;50.626;12.922;2024-03-07T00:37:42;40.40;;;21.00;;
14167;SDS011;7163;50.626;12.922;2024-03-07T00:42:42;39.43;;;20.60;;
14167;SDS011;7163;50.626;12.922;2024-03-07T00:47:43;42.70;;;21.80;;
14167;SDS011;7163;50.626;12.922;2024-03-07T00:52:43;39.73;;;20.93;;
14167;SDS011;7163;50.626;12.922;2024-03-07T00:57:44;41.33;;;22.03;;
14167;SDS011;7163;50.626;12.922;2024-03-07T01:02:46;44.33;;;21.90;;
14167;SDS011;7163;50.626;12.922;2024-03-07T01:07:48;43.57;;;21.93;;
14167;SDS011;7163;50.626;12.922;2024-03-07T01:12:49;44.67;;;21.77;;
14167;SDS011;7163;50.626;12.922;2024-03-07T01:17:50;53.37;;;23.90;;
14167;SDS011;7163;50.626;12.922;2024-03-07T01:22:51;52.33;;;24.87;;
14167;SDS011;7163;50.626;12.922;2024-03-07T01:27:51;55.47;;;24.50;;
14167;SDS011;7163;50.626;12.922;2024-03-07T01:32:52;57.27;;;25.37;;
14167;SDS011;7163;50.626;12.922;2024-03-07T01:37:52;51.27;;;24.83;;
14167;SDS011;7163;50.626;12.922;2024-03-07T01:42:55;62.27;;;26.07;;
14167;SDS011;7163;50.626;12.922;2024-03-07T01:47:55;60.03;;;26.83;;
14167;SDS011;7163;50.626;12.922;2024-03-07T01:52:56;58.17;;;27.23;;
14167;SDS011;7163;50.626;12.922;2024-03-07T01:57:57;63.93;;;29.10;;
14167;SDS011;7163;50.626;12.922;2024-03-07T02:03:01;66.13;;;27.43;;
14167;SDS011;7163;50.626;12.922;2024-03-07T02:08:03;59.83;;;27.83;;
14167;SDS011;7163;50.626;12.922;2024-03-07T02:13:03;63.80;;;27.07;;
14167;SDS011;7163;50.626;12.922;2024-03-07T02:18:04;68.30;;;28.67;;
14167;SDS011;7163;50.626;12.922;2024-03-07T02:23:09;64.47;;;28.63;;
14167;SDS011;7163;50.626;12.922;2024-03-07T02:28:10;66.57;;;28.30;;
14167;SDS011;7163;50.626;12.922;2024-03-07T02:33:10;69.87;;;30.10;;
14167;SDS011;7163;50.626;12.922;2024-03-07T02:38:12;70.10;;;29.47;;
14167;SDS011;7163;50.626;12.922;2024-03-07T02:43:12;58.07;;;27.53;;
14167;SDS011;7163;50.626;12.922;2024-03-07T02:48:13;64.07;;;28.93;;
14167;SDS011;7163;50.626;12.922;2024-03-07T02:53:14;61.63;;;28.07;;
14167;SDS011;7163;50.626;12.922;2024-03-07T02:58:14;65.37;;;28.40;;
14167;SDS011;7163;50.626;12.922;2024-03-07T03:03:15;67.83;;;27.97;;
14167;SDS011;7163;50.626;12.922;2024-03-07T03:08:15;59.87;;;26.63;;
14167;SDS011;7163;50.626;12.922;2024-03-07T03:13:15;62.90;;;27.33;;
14167;SDS011;7163;50.626;12.922;2024-03-07T03:18:16;72.30;;;29.83;;
14167;SDS011;7163;50.626;12.922;2024-03-07T03:23:16;68.43;;;29.07;;
14167;SDS011;7163;50.626;12.922;2024-03-07T03:28:17;57.83;;;26.70;;
14167;SDS011;7163;50.626;12.922;2024-03-07T03:33:19;54.50;;;26.20;;
14167;SDS011;7163;50.626;12.922;2024-03-07T03:38:20;63.97;;;27.47;;
14167;SDS011;7163;50.626;12.922;2024-03-07T03:43:21;58.80;;;28.03;;
14167;SDS011;7163;50.626;12.922;2024-03-07T03:48:22;57.50;;;25.87;;
14167;SDS011;7163;50.626;12.922;2024-03-07T03:53:23;54.47;;;25.73;;
14167;SDS011;7163;50.626;12.922;2024-03-07T03:58:23;70.20;;;29.57;;
14167;SDS011;7163;50.626;12.922;2024-03-07T04:03:23;52.58;;;24.30;;
14167;SDS011;7163;50.626;12.922;2024-03-07T04:08:23;45.03;;;22.70;;
14167;SDS011;7163;50.626;12.922;2024-03-07T04:13:24;46.27;;;22.03;;
14167;SDS011;7163;50.626;12.922;2024-03-07T04:18:26;47.77;;;22.10;;
14167;SDS011;7163;50.626;12.922;2024-03-07T04:23:27;43.67;;;21.73;;
14167;SDS011;7163;50.626;12.922;2024-03-07T04:28:28;47.53;;;22.77;;
14167;SDS011;7163;50.626;12.922;2024-03-07T04:33:28;47.10;;;22.43;;
14167;SDS011;7163;50.626;12.922;2024-03-07T04:38:28;45.38;;;21.65;;
14167;SDS011;7163;50.626;12.922;2024-03-07T04:43:29;52.60;;;24.95;;
14167;SDS011;7163;50.626;12.922;2024-03-07T04:48:29;53.27;;;23.47;;
14167;SDS011;7163;50.626;12.922;2024-03-07T04:53:29;49.83;;;22.20;;
14167;SDS011;7163;50.626;12.922;2024-03-07T04:58:30;56.37;;;25.50;;
14167;SDS011;7163;50.626;12.922;2024-03-07T05:03:30;54.17;;;26.08;;
14167;SDS011;7163;50.626;12.922;2024-03-07T05:08:32;80.60;;;26.30;;
14167;SDS011;7163;50.626;12.922;2024-03-07T05:13:33;58.37;;;25.97;;
14167;SDS011;7163;50.626;12.922;2024-03-07T05:18:34;55.40;;;24.33;;
14167;SDS011;7163;50.626;12.922;2024-03-07T05:23:34;57.13;;;24.87;;
14167;SDS011;7163;50.626;12.922;2024-03-07T05:28:35;50.07;;;24.73;;
14167;SDS011;7163;50.626;12.922;2024-03-07T05:33:35;55.33;;;26.33;;
14167;SDS011;7163;50.626;12.922;2024-03-07T05:38:36;60.97;;;26.40;;
14167;SDS011;7163;50.626;12.922;2024-03-07T05:43:36;54.07;;;25.33;;
14167;SDS011;7163;50.626;12.922;2024-03-07T05:48:37;65.40;;;28.47;;
14167;SDS011;7163;50.626;12.922;2024-03-07T05:53:37;58.00;;;27.60;;
14167;SDS011;7163;50.626;12.922;2024-03-07T05:58:37;63.07;;;28.77;;
14167;SDS011;7163;50.626;12.922;2024-03-07T06:03:39;60.67;;;27.63;;
14167;SDS011;7163;50.626;12.922;2024-03-07T06:08:39;61.13;;;28.33;;
14167;SDS011;7163;50.626;12.922;2024-03-07T06:13:44;72.23;;;31.53;;
14167;SDS011;7163;50.626;12.922;2024-03-07T06:18:45;70.57;;;30.57;;
14167;SDS011;7163;50.626;12.922;2024-03-07T06:23:47;71.00;;;31.47;;
14167;SDS011;7163;50.626;12.922;2024-03-07T06:28:47;73.87;;;31.97;;
14167;SDS011;7163;50.626;12.922;2024-03-07T06:33:51;82.77;;;34.47;;
14167;SDS011;7163;50.626;12.922;2024-03-07T06:38:52;92.40;;;36.90;;
14167;SDS011;7163;50.626;12.922;2024-03-07T06:43:52;90.87;;;37.33;;
14167;SDS011;7163;50.626;12.922;2024-03-07T06:48:55;98.33;;;40.70;;
14167;SDS011;7163;50.626;12.922;2024-03-07T06:53:58;89.57;;;39.10;;
14167;SDS011;7163;50.626;12.922;2024-03-07T06:58:59;95.33;;;38.93;;
14167;SDS011;7163;50.626;12.922;2024-03-07T07:03:59;96.17;;;41.50;;
14167;SDS011;7163;50.626;12.922;2024-03-07T07:09:04;80.77;;;39.13;;
14167;SDS011;7163;50.626;12.922;2024-03-07T07:14:06;80.90;;;35.03;;
14167;SDS011;7163;50.626;12.922;2024-03-07T07:19:07;70.97;;;34.07;;
14167;SDS011;7163;50.626;12.922;2024-03-07T07:24:07;73.73;;;33.53;;
14167;SDS011;7163;50.626;12.922;2024-03-07T07:29:07;63.90;;;32.50;;
14167;SDS011;7163;50.626;12.922;2024-03-07T07:34:08;64.00;;;31.67;;
14167;SDS011;7163;50.626;12.922;2024-03-07T07:39:08;51.97;;;29.10;;
14167;SDS011;7163;50.626;12.922;2024-03-07T07:44:16;51.53;;;28.47;;
14167;SDS011;7163;50.626;12.922;2024-03-07T07:49:18;47.50;;;25.77;;
14167;SDS011;7163;50.626;12.922;2024-03-07T07:54:19;42.30;;;25.10;;
14167;SDS011;7163;50.626;12.922;2024-03-07T07:59:21;43.83;;;24.43;;
14167;SDS011;7163;50.626;12.922;2024-03-07T08:04:21;39.40;;;22.30;;
14167;SDS011;7163;50.626;12.922;2024-03-07T08:09:22;45.97;;;22.33;;
14167;SDS011;7163;50.626;12.922;2024-03-07T08:14:22;38.78;;;20.73;;
14167;SDS011;7163;50.626;12.922;2024-03-07T08:19:23;39.97;;;21.27;;
14167;SDS011;7163;50.626;12.922;2024-03-07T08:24:30;30.90;;;18.20;;
14167;SDS011;7163;50.626;12.922;2024-03-07T08:29:32;32.83;;;17.63;;
14167;SDS011;7163;50.626;12.922;2024-03-07T08:34:32;27.97;;;15.90;;
14167;SDS011;7163;50.626;12.922;2024-03-07T08:39:33;30.87;;;18.40;;
14167;SDS011;7163;50.626;12.922;2024-03-07T08:44:34;35.93;;;18.73;;
14167;SDS011;7163;50.626;12.922;2024-03-07T08:49:34;34.30;;;19.67;;
14167;SDS011;7163;50.626;12.922;2024-03-07T08:59:45;30.43;;;18.27;;
14167;SDS011;7163;50.626;12.922;2024-03-07T09:04:46;32.33;;;17.40;;
14167;SDS011;7163;50.626;12.922;2024-03-07T09:09:46;29.70;;;17.37;;
14167;SDS011;7163;50.626;12.922;2024-03-07T09:14:47;32.42;;;16.08;;
14167;SDS011;7163;50.626;12.922;2024-03-07T09:19:47;27.33;;;15.23;;
14167;SDS011;7163;50.626;12.922;2024-03-07T09:24:48;42.10;;;14.60;;
14167;SDS011;7163;50.626;12.922;2024-03-07T09:29:48;24.73;;;13.73;;
14167;SDS011;7163;50.626;12.922;2024-03-07T09:34:48;23.83;;;13.57;;
14167;SDS011;7163;50.626;12.922;2024-03-07T09:39:49;25.63;;;14.70;;
14167;SDS011;7163;50.626;12.922;2024-03-07T09:44:50;29.30;;;14.17;;
14167;SDS011;7163;50.626;12.922;2024-03-07T09:49:51;29.50;;;13.80;;
14167;SDS011;7163;50.626;12.922;2024-03-07T09:54:52;29.17;;;12.23;;
14167;SDS011;7163;50.626;12.922;2024-03-07T09:59:53;27.37;;;12.57;;
14167;SDS011;7163;50.626;12.922;2024-03-07T10:04:54;22.10;;;12.63;;
14167;SDS011;7163;50.626;12.922;2024-03-07T10:09:56;24.33;;;13.00;;
14167;SDS011;7163;50.626;12.922;2024-03-07T10:20:08;20.97;;;11.40;;
14167;SDS011;7163;50.626;12.922;2024-03-07T10:25:10;21.87;;;11.50;;
14167;SDS011;7163;50.626;12.922;2024-03-07T10:30:10;29.00;;;12.07;;
14167;SDS011;7163;50.626;12.922;2024-03-07T10:35:14;19.57;;;11.03;;
14167;SDS011;7163;50.626;12.922;2024-03-07T10:40:14;19.70;;;10.77;;
14167;SDS011;7163;50.626;12.922;2024-03-07T10:45:18;17.30;;;10.23;;
14167;SDS011;7163;50.626;12.922;2024-03-07T10:50:20;18.00;;;10.90;;
14167;SDS011;7163;50.626;12.922;2024-03-07T11:21:40;22.90;;;12.90;;
14167;SDS011;7163;50.626;12.922;2024-03-07T11:32:00;22.83;;;13.20;;
14167;SDS011;7163;50.626;12.922;2024-03-07T11:37:09;23.73;;;13.83;;
14167;SDS011;7163;50.626;12.922;2024-03-07T12:08:08;20.33;;;12.52;;
14167;SDS011;7163;50.626;12.922;2024-03-07T12:13:13;18.27;;;12.35;;
14167;SDS011;7163;50.626;12.922;2024-03-07T12:18:15;17.35;;;12.02;;
14167;SDS011;7163;50.626;12.922;2024-03-07T12:23:17;19.08;;;11.88;;
14167;SDS011;7163;50.626;12.922;2024-03-07T13:20:02;21.90;;;13.17;;
14167;SDS011;7163;50.626;12.922;2024-03-07T13:25:05;19.57;;;12.50;;
14167;SDS011;7163;50.626;12.922;2024-03-07T13:30:14;19.77;;;12.33;;
14167;SDS011;7163;50.626;12.922;2024-03-07T13:35:28;21.50;;;12.97;;
14167;SDS011;7163;50.626;12.922;2024-03-07T13:40:34;18.37;;;12.37;;
14167;SDS011;7163;50.626;12.922;2024-03-07T13:45:38;21.03;;;13.43;;
14167;SDS011;7163;50.626;12.922;2024-03-07T13:50:39;24.63;;;14.57;;
14167;SDS011;7163;50.626;12.922;2024-03-07T14:11:51;23.93;;;14.93;;
14167;SDS011;7163;50.626;12.922;2024-03-07T14:22:30;29.00;;;14.57;;
14167;SDS011;7163;50.626;12.922;2024-03-07T14:27:50;25.70;;;15.97;;
14167;SDS011;7163;50.626;12.922;2024-03-07T14:32:57;30.70;;;15.57;;
14167;SDS011;7163;50.626;12.922;2024-03-07T14:43:35;32.80;;;17.60;;
14167;SDS011;7163;50.626;12.922;2024-03-07T14:48:37;31.97;;;17.30;;
14167;SDS011;7163;50.626;12.922;2024-03-07T14:53:41;28.97;;;17.57;;
14167;SDS011;7163;50.626;12.922;2024-03-07T14:58:45;44.30;;;18.40;;
14167;SDS011;7163;50.626;12.922;2024-03-07T15:03:46;29.33;;;17.77;;
14167;SDS011;7163;50.626;12.922;2024-03-07T15:08:46;34.00;;;19.03;;
14167;SDS011;7163;50.626;12.922;2024-03-07T15:13:52;34.03;;;18.60;;
14167;SDS011;7163;50.626;12.922;2024-03-07T15:19:01;31.30;;;18.60;;
14167;SDS011;7163;50.626;12.922;2024-03-07T15:24:02;34.03;;;19.97;;
14167;SDS011;7163;50.626;12.922;2024-03-07T15:29:03;44.80;;;26.03;;
14167;SDS011;7163;50.626;12.922;2024-03-07T15:34:05;40.97;;;22.53;;
14167;SDS011;7163;50.626;12.922;2024-03-07T15:54:45;46.43;;;22.77;;
14167;SDS011;7163;50.626;12.922;2024-03-07T15:59:45;35.13;;;19.87;;
14167;SDS011;7163;50.626;12.922;2024-03-07T16:04:46;33.67;;;19.70;;
14167;SDS011;7163;50.626;12.922;2024-03-07T16:09:47;35.20;;;20.80;;
14167;SDS011;7163;50.626;12.922;2024-03-07T16:14:47;54.93;;;29.03;;
14167;SDS011;7163;50.626;12.922;2024-03-07T16:19:48;37.73;;;21.33;;
14167;SDS011;7163;50.626;12.922;2024-03-07T16:24:49;38.47;;;21.87;;
14167;SDS011;7163;50.626;12.922;2024-03-07T16:29:51;43.50;;;24.87;;
14167;SDS011;7163;50.626;12.922;2024-03-07T16:34:51;40.30;;;23.03;;
14167;SDS011;7163;50.626;12.922;2024-03-07T16:39:54;38.27;;;22.37;;
14167;SDS011;7163;50.626;12.922;2024-03-07T16:50:08;39.63;;;21.30;;
14167;SDS011;7163;50.626;12.922;2024-03-07T16:55:15;39.10;;;23.47;;
14167;SDS011;7163;50.626;12.922;2024-03-07T17:00:45;31.10;;;18.23;;
14167;SDS011;7163;50.626;12.922;2024-03-07T17:05:51;31.43;;;18.47;;
14167;SDS011;7163;50.626;12.922;2024-03-07T17:10:54;33.37;;;19.60;;
14167;SDS011;7163;50.626;12.922;2024-03-07T17:15:55;32.60;;;18.47;;
14167;SDS011;7163;50.626;12.922;2024-03-07T17:21:00;34.03;;;18.67;;
14167;SDS011;7163;50.626;12.922;2024-03-07T17:26:00;29.70;;;17.87;;
14167;SDS011;7163;50.626;12.922;2024-03-07T17:31:01;28.97;;;17.13;;
14167;SDS011;7163;50.626;12.922;2024-03-07T17:36:01;34.30;;;19.40;;
14167;SDS011;7163;50.626;12.922;2024-03-07T17:41:06;43.03;;;25.70;;
14167;SDS011;7163;50.626;12.922;2024-03-07T17:46:09;81.77;;;44.90;;
14167;SDS011;7163;50.626;12.922;2024-03-07T17:51:10;38.67;;;21.37;;
14167;SDS011;7163;50.626;12.922;2024-03-07T17:56:11;49.03;;;28.17;;
14167;SDS011;7163;50.626;12.922;2024-03-07T18:01:11;38.92;;;22.45;;
14167;SDS011;7163;50.626;12.922;2024-03-07T18:06:17;36.70;;;20.47;;
14167;SDS011;7163;50.626;12.922;2024-03-07T18:11:22;47.80;;;23.87;;
14167;SDS011;7163;50.626;12.922;2024-03-07T18:16:26;35.00;;;18.90;;
14167;SDS011;7163;50.626;12.922;2024-03-07T18:21:27;45.80;;;26.00;;
14167;SDS011;7163;50.626;12.922;2024-03-07T18:26:29;41.40;;;23.70;;
14167;SDS011;7163;50.626;12.922;2024-03-07T18:31:34;35.27;;;18.97;;
14167;SDS011;7163;50.626;12.922;2024-03-07T18:36:37;38.90;;;21.63;;
14167;SDS011;7163;50.626;12.922;2024-03-07T18:41:37;35.43;;;21.07;;
14167;SDS011;7163;50.626;12.922;2024-03-07T18:46:38;36.93;;;20.73;;
14167;SDS011;7163;50.626;12.922;2024-03-07T18:51:39;39.07;;;21.53;;
14167;SDS011;7163;50.626;12.922;2024-03-07T18:56:39;42.43;;;25.73;;
14167;SDS011;7163;50.626;12.922;2024-03-07T19:01:43;29.43;;;17.47;;
14167;SDS011;7163;50.626;12.922;2024-03-07T19:06:46;38.10;;;21.77;;
14167;SDS011;7163;50.626;12.922;2024-03-07T19:11:50;49.13;;;26.07;;
14167;SDS011;7163;50.626;12.922;2024-03-07T19:16:51;37.83;;;19.50;;
14167;SDS011;7163;50.626;12.922;2024-03-07T19:21:53;71.17;;;35.80;;
14167;SDS011;7163;50.626;12.922;2024-03-07T19:26:56;116.77;;;63.07;;
14167;SDS011;7163;50.626;12.922;2024-03-07T19:31:58;36.03;;;19.60;;
14167;SDS011;7163;50.626;12.922;2024-03-07T19:36:58;56.97;;;32.40;;
14167;SDS011;7163;50.626;12.922;2024-03-07T19:41:59;44.20;;;24.10;;
14167;SDS011;7163;50.626;12.922;2024-03-07T19:46:59;70.63;;;36.27;;
14167;SDS011;7163;50.626;12.922;2024-03-07T19:52:02;55.13;;;30.85;;
14167;SDS011;7163;50.626;12.922;2024-03-07T19:57:09;47.47;;;26.70;;
14167;SDS011;7163;50.626;12.922;2024-03-07T20:02:11;51.10;;;28.47;;
14167;SDS011;7163;50.626;12.922;2024-03-07T20:07:14;42.87;;;23.63;;
14167;SDS011;7163;50.626;12.922;2024-03-07T20:12:14;40.33;;;19.07;;
14167;SDS011;7163;50.626;12.922;2024-03-07T20:17:19;34.33;;;19.17;;
14167;SDS011;7163;50.626;12.922;2024-03-07T20:22:19;36.43;;;20.70;;
14167;SDS011;7163;50.626;12.922;2024-03-07T20:27:20;36.83;;;20.70;;
14167;SDS011;7163;50.626;12.922;2024-03-07T20:32:20;32.95;;;19.38;;
14167;SDS011;7163;50.626;12.922;2024-03-07T20:37:20;38.83;;;19.58;;
14167;SDS011;7163;50.626;12.922;2024-03-07T20:42:22;37.43;;;18.50;;
14167;SDS011;7163;50.626;12.922;2024-03-07T20:47:22;36.83;;;19.95;;
14167;SDS011;7163;50.626;12.922;2024-03-07T20:52:26;43.40;;;22.40;;
14167;SDS011;7163;50.626;12.922;2024-03-07T20:57:29;41.37;;;22.50;;
14167;SDS011;7163;50.626;12.922;2024-03-07T21:02:30;46.20;;;21.93;;
14167;SDS011;7163;50.626;12.922;2024-03-07T21:07:32;48.87;;;22.77;;
14167;SDS011;7163;50.626;12.922;2024-03-07T21:12:35;48.67;;;23.03;;
14167;SDS011;7163;50.626;12.922;2024-03-07T21:17:36;44.43;;;23.23;;
14167;SDS011;7163;50.626;12.922;2024-03-07T21:22:40;44.73;;;22.03;;
14167;SDS011;7163;50.626;12.922;2024-03-07T21:27:43;43.43;;;22.57;;
14167;SDS011;7163;50.626;12.922;2024-03-07T21:32:43;45.00;;;22.53;;
14167;SDS011;7163;50.626;12.922;2024-03-07T21:37:44;46.70;;;23.27;;
14167;SDS011;7163;50.626;12.922;2024-03-07T21:42:46;47.23;;;23.97;;
14167;SDS011;7163;50.626;12.922;2024-03-07T21:47:48;46.67;;;24.43;;
14167;SDS011;7163;50.626;12.922;2024-03-07T21:52:55;52.43;;;24.63;;
14167;SDS011;7163;50.626;12.922;2024-03-07T21:57:55;54.70;;;25.37;;
14167;SDS011;7163;50.626;12.922;2024-03-07T22:02:56;54.77;;;25.27;;
14167;SDS011;7163;50.626;12.922;2024-03-07T22:07:56;58.38;;;25.80;;
14167;SDS011;7163;50.626;12.922;2024-03-07T22:12:58;66.67;;;28.27;;
14167;SDS011;7163;50.626;12.922;2024-03-07T22:17:58;66.10;;;27.40;;
14167;SDS011;7163;50.626;12.922;2024-03-07T22:22:59;62.47;;;27.87;;
14167;SDS011;7163;50.626;12.922;2024-03-07T22:27:59;63.00;;;27.08;;
14167;SDS011;7163;50.626;12.922;2024-03-07T22:33:06;57.27;;;27.67;;
14167;SDS011;7163;50.626;12.922;2024-03-07T22:38:07;71.77;;;30.57;;
14167;SDS011;7163;50.626;12.922;2024-03-07T22:43:11;62.07;;;29.10;;
14167;SDS011;7163;50.626;12.922;2024-03-07T22:48:12;61.67;;;28.43;;
14167;SDS011;7163;50.626;12.922;2024-03-07T22:53:12;59.07;;;27.80;;
14167;SDS011;7163;50.626;12.922;2024-03-07T22:58:12;64.63;;;29.20;;
14167;SDS011;7163;50.626;12.922;2024-03-07T23:08:26;65.40;;;26.83;;
14167;SDS011;7163;50.626;12.922;2024-03-07T23:13:26;59.87;;;28.03;;
14167;SDS011;7163;50.626;12.922;2024-03-07T23:18:27;62.40;;;29.87;;
14167;SDS011;7163;50.626;12.922;2024-03-07T23:23:27;71.43;;;31.30;;
14167;SDS011;7163;50.626;12.922;2024-03-07T23:28:28;70.77;;;30.77;;
14167;SDS011;7163;50.626;12.922;2024-03-07T23:33:30;69.83;;;32.40;;
14167;SDS011;7163;50.626;12.922;2024-03-07T23:38:31;69.30;;;31.40;;
14167;SDS011;7163;50.626;12.922;2024-03-07T23:43:31;65.97;;;29.23;;
14167;SDS011;7163;50.626;12.922;2024-03-07T23:48:32;68.03;;;30.25;;
14167;SDS011;7163;50.626;12.922;2024-03-07T23:53:32;65.60;;;28.57;;
14167;SDS011;7163;50.626;12.922;2024-03-07T23:58:33;78.33;;;31.70;;
